Terminal Aerodrome Forecast
Issued by NWS Tuscon, AZ

Current Version | Previous Version | Text Only | Print | Product List | Glossary On
Versions: 1 2 3 4 5 6 7 8 9 10 11 12 13 14
000
FTUS45 KTWC 232333
TAFTUS
TAF
KTUS 232333Z 2400/2424 33012G18KT P6SM FEW150 FEW250
     FM240300 26008KT P6SM SCT250
     FM240900 14006KT P6SM SCT150 SCT250
     FM241800 33010G16KT P6SM SCT150 SCT250=

USA.gov is the U.S. government's official web portal to all federal, state and local government web resources and services.